LROP/OTP METAR and TAF weather

Enter ICAO airport designator
Station Type Date Time Source
LROP METAR 2020/01/23 06:00 UTC NOAA

LROP 230600Z 28008KT CAVOK M01/M06 Q1028 NOSIG


Station Type Date Time Source
LROP Decoded METAR 2020/01/23 06:00 UTC NOAA

Bucuresti Otopeni, Romania (LROP) 44-33N 026-06E 95M
Jan 23, 2020 - 01:00 AM EST / 2020.01.23 0600 UTC
Wind: from the W (280 degrees) at 9 MPH (8 KT):0
Visibility: greater than 7 mile(s):0
Temperature: 30 F (-1 C)
Windchill: 21 F (-6 C):1
Dew Point: 21 F (-6 C)
Relative Humidity: 68%
Pressure (altimeter): 30.36 in. Hg (1028 hPa)
ob: LROP 230600Z 28008KT CAVOK M01/M06 Q1028 NOSIG
cycle: 6

Station Type Date Time Source
LROP TAF 2020/01/23 06:33 UTC NOAA

TAF LROP 230500Z 2306/2406 29006KT CAVOK

Example: see airport list